sensor_id;sensor_type;location;lat;lon;timestamp;pressure;altitude;pressure_sealevel;temperature;humidity
42411;BME280;28056;51.112;0.984;2024-03-23T00:55:55;100481.15;;;2.19;100.00
42411;BME280;28056;51.112;0.984;2024-03-23T00:58:23;100478.76;;;2.06;100.00
42411;BME280;28056;51.112;0.984;2024-03-23T01:00:50;100480.15;;;1.97;100.00
42411;BME280;28056;51.112;0.984;2024-03-23T01:04:48;100476.30;;;2.45;100.00
42411;BME280;28056;51.112;0.984;2024-03-23T01:07:15;100473.13;;;2.26;100.00
42411;BME280;28056;51.112;0.984;2024-03-23T01:09:42;100466.67;;;2.30;100.00
42411;BME280;28056;51.112;0.984;2024-03-23T01:12:09;100466.59;;;2.75;100.00
42411;BME280;28056;51.112;0.984;2024-03-23T01:14:36;100469.56;;;3.14;100.00
42411;BME280;28056;51.112;0.984;2024-03-23T01:17:04;100470.32;;;2.66;100.00
42411;BME280;28056;51.112;0.984;2024-03-23T01:19:31;100467.64;;;3.57;100.00
42411;BME280;28056;51.112;0.984;2024-03-23T01:21:58;100462.23;;;3.09;100.00
42411;BME280;28056;51.112;0.984;2024-03-23T01:24:25;100459.78;;;3.80;100.00
42411;BME280;28056;51.112;0.984;2024-03-23T01:26:52;100459.26;;;3.33;100.00
42411;BME280;28056;51.112;0.984;2024-03-23T01:29:19;100457.66;;;3.77;100.00
42411;BME280;28056;51.112;0.984;2024-03-23T01:31:47;100456.40;;;3.78;100.00
42411;BME280;28056;51.112;0.984;2024-03-23T01:34:14;100451.64;;;4.18;100.00
42411;BME280;28056;51.112;0.984;2024-03-23T01:36:41;100448.67;;;3.97;100.00
42411;BME280;28056;51.112;0.984;2024-03-23T01:39:09;100445.75;;;4.03;100.00
42411;BME280;28056;51.112;0.984;2024-03-23T01:41:36;100443.46;;;3.65;100.00
42411;BME280;28056;51.112;0.984;2024-03-23T01:44:05;100446.07;;;3.18;100.00
42411;BME280;28056;51.112;0.984;2024-03-23T01:46:33;100448.38;;;3.05;100.00
42411;BME280;28056;51.112;0.984;2024-03-23T01:49:00;100450.49;;;2.63;100.00
42411;BME280;28056;51.112;0.984;2024-03-23T01:51:28;100456.66;;;2.59;100.00
42411;BME280;28056;51.112;0.984;2024-03-23T01:53:56;100456.69;;;2.47;100.00
42411;BME280;28056;51.112;0.984;2024-03-23T01:56:24;100451.56;;;2.17;100.00
42411;BME280;28056;51.112;0.984;2024-03-23T01:58:51;100452.00;;;2.06;100.00
42411;BME280;28056;51.112;0.984;2024-03-23T02:01:18;100450.31;;;1.85;100.00
42411;BME280;28056;51.112;0.984;2024-03-23T02:03:45;100452.98;;;1.95;100.00
42411;BME280;28056;51.112;0.984;2024-03-23T02:06:12;100456.66;;;1.77;100.00
42411;BME280;28056;51.112;0.984;2024-03-23T02:08:40;100452.36;;;1.60;100.00
42411;BME280;28056;51.112;0.984;2024-03-23T02:11:08;100450.17;;;1.64;100.00
42411;BME280;28056;51.112;0.984;2024-03-23T02:13:35;100449.30;;;1.11;100.00
42411;BME280;28056;51.112;0.984;2024-03-23T02:16:02;100447.85;;;1.95;100.00
42411;BME280;28056;51.112;0.984;2024-03-23T02:18:29;100450.53;;;1.36;100.00
42411;BME280;28056;51.112;0.984;2024-03-23T02:20:56;100450.76;;;1.12;100.00
42411;BME280;28056;51.112;0.984;2024-03-23T02:23:23;100445.21;;;1.26;100.00
42411;BME280;28056;51.112;0.984;2024-03-23T02:25:50;100446.42;;;1.09;100.00
42411;BME280;28056;51.112;0.984;2024-03-23T02:28:17;100446.99;;;1.25;100.00
42411;BME280;28056;51.112;0.984;2024-03-23T02:30:44;100447.09;;;1.83;100.00
42411;BME280;28056;51.112;0.984;2024-03-23T02:33:11;100451.96;;;1.39;100.00
42411;BME280;28056;51.112;0.984;2024-03-23T02:35:38;100454.31;;;1.70;100.00
42411;BME280;28056;51.112;0.984;2024-03-23T02:38:06;100452.33;;;1.67;100.00
42411;BME280;28056;51.112;0.984;2024-03-23T02:40:33;100453.70;;;1.74;100.00
42411;BME280;28056;51.112;0.984;2024-03-23T02:43:00;100451.16;;;1.33;100.00
42411;BME280;28056;51.112;0.984;2024-03-23T02:45:27;100453.32;;;1.77;100.00
42411;BME280;28056;51.112;0.984;2024-03-23T02:47:54;100450.77;;;2.13;100.00
42411;BME280;28056;51.112;0.984;2024-03-23T02:50:21;100448.09;;;1.87;100.00
42411;BME280;28056;51.112;0.984;2024-03-23T02:52:48;100450.55;;;1.53;100.00
42411;BME280;28056;51.112;0.984;2024-03-23T02:55:16;100448.01;;;1.60;100.00
42411;BME280;28056;51.112;0.984;2024-03-23T02:57:43;100448.70;;;1.71;100.00
42411;BME280;28056;51.112;0.984;2024-03-23T03:00:12;100441.69;;;1.64;100.00
42411;BME280;28056;51.112;0.984;2024-03-23T03:02:39;100448.18;;;1.28;100.00
42411;BME280;28056;51.112;0.984;2024-03-23T03:05:06;100449.72;;;1.13;100.00
42411;BME280;28056;51.112;0.984;2024-03-23T03:07:33;100449.73;;;0.98;100.00
42411;BME280;28056;51.112;0.984;2024-03-23T03:10:00;100446.07;;;0.68;100.00
42411;BME280;28056;51.112;0.984;2024-03-23T03:12:28;100445.93;;;0.62;100.00
42411;BME280;28056;51.112;0.984;2024-03-23T03:14:56;100444.77;;;0.82;100.00
42411;BME280;28056;51.112;0.984;2024-03-23T03:17:23;100441.74;;;0.39;100.00
42411;BME280;28056;51.112;0.984;2024-03-23T03:19:50;100440.80;;;0.38;100.00
42411;BME280;28056;51.112;0.984;2024-03-23T03:22:17;100441.47;;;0.62;100.00
42411;BME280;28056;51.112;0.984;2024-03-23T03:24:45;100443.01;;;0.58;100.00
42411;BME280;28056;51.112;0.984;2024-03-23T03:27:12;100443.38;;;0.39;100.00
42411;BME280;28056;51.112;0.984;2024-03-23T03:29:39;100438.69;;;0.43;100.00
42411;BME280;28056;51.112;0.984;2024-03-23T03:32:07;100442.86;;;0.38;100.00
42411;BME280;28056;51.112;0.984;2024-03-23T03:34:34;100440.09;;;0.49;100.00
42411;BME280;28056;51.112;0.984;2024-03-23T03:37:01;100442.53;;;0.52;100.00
42411;BME280;28056;51.112;0.984;2024-03-23T03:39:29;100442.28;;;0.39;100.00
42411;BME280;28056;51.112;0.984;2024-03-23T03:41:56;100432.80;;;0.66;100.00
42411;BME280;28056;51.112;0.984;2024-03-23T03:44:23;100429.92;;;0.50;100.00
42411;BME280;28056;51.112;0.984;2024-03-23T03:46:50;100430.67;;;0.59;100.00
42411;BME280;28056;51.112;0.984;2024-03-23T03:49:17;100433.26;;;0.85;100.00
42411;BME280;28056;51.112;0.984;2024-03-23T03:51:44;100433.29;;;0.30;100.00
42411;BME280;28056;51.112;0.984;2024-03-23T03:54:12;100436.29;;;0.70;100.00
42411;BME280;28056;51.112;0.984;2024-03-23T03:56:39;100435.68;;;0.87;100.00
42411;BME280;28056;51.112;0.984;2024-03-23T03:59:06;100433.82;;;0.72;100.00
42411;BME280;28056;51.112;0.984;2024-03-23T04:01:33;100432.88;;;0.68;100.00
42411;BME280;28056;51.112;0.984;2024-03-23T04:04:00;100435.60;;;0.69;100.00
42411;BME280;28056;51.112;0.984;2024-03-23T04:06:28;100437.11;;;0.31;100.00
42411;BME280;28056;51.112;0.984;2024-03-23T04:08:54;100436.25;;;0.46;100.00
42411;BME280;28056;51.112;0.984;2024-03-23T04:11:22;100438.43;;;0.75;100.00
42411;BME280;28056;51.112;0.984;2024-03-23T04:13:49;100438.19;;;0.75;100.00
42411;BME280;28056;51.112;0.984;2024-03-23T04:16:26;100431.92;;;0.86;100.00
42411;BME280;28056;51.112;0.984;2024-03-23T04:18:54;100432.42;;;0.83;100.00
42411;BME280;28056;51.112;0.984;2024-03-23T04:21:22;100430.99;;;0.60;100.00
42411;BME280;28056;51.112;0.984;2024-03-23T04:23:49;100431.83;;;0.57;100.00
42411;BME280;28056;51.112;0.984;2024-03-23T04:26:16;100430.34;;;0.68;100.00
42411;BME280;28056;51.112;0.984;2024-03-23T04:28:43;100433.15;;;0.52;100.00
42411;BME280;28056;51.112;0.984;2024-03-23T04:31:10;100439.34;;;0.25;100.00
42411;BME280;28056;51.112;0.984;2024-03-23T04:33:37;100440.92;;;0.36;100.00
42411;BME280;28056;51.112;0.984;2024-03-23T04:36:05;100443.94;;;0.42;100.00
42411;BME280;28056;51.112;0.984;2024-03-23T04:38:33;100442.22;;;0.37;100.00
42411;BME280;28056;51.112;0.984;2024-03-23T04:41:00;100444.87;;;0.22;100.00
42411;BME280;28056;51.112;0.984;2024-03-23T04:43:28;100447.37;;;0.44;100.00
42411;BME280;28056;51.112;0.984;2024-03-23T04:45:56;100442.28;;;0.40;100.00
42411;BME280;28056;51.112;0.984;2024-03-23T04:48:23;100436.84;;;0.59;100.00
42411;BME280;28056;51.112;0.984;2024-03-23T04:50:55;100442.97;;;0.51;100.00
42411;BME280;28056;51.112;0.984;2024-03-23T04:53:22;100438.86;;;0.63;100.00
42411;BME280;28056;51.112;0.984;2024-03-23T04:55:49;100447.01;;;0.14;100.00
42411;BME280;28056;51.112;0.984;2024-03-23T04:58:16;100443.11;;;0.53;100.00
42411;BME280;28056;51.112;0.984;2024-03-23T05:00:44;100438.78;;;0.62;100.00
42411;BME280;28056;51.112;0.984;2024-03-23T05:03:11;100443.70;;;0.85;100.00
42411;BME280;28056;51.112;0.984;2024-03-23T05:05:38;100450.96;;;0.40;100.00
42411;BME280;28056;51.112;0.984;2024-03-23T05:08:06;100446.04;;;0.98;100.00
42411;BME280;28056;51.112;0.984;2024-03-23T05:10:33;100444.97;;;0.97;100.00
42411;BME280;28056;51.112;0.984;2024-03-23T05:13:00;100439.30;;;1.04;100.00
42411;BME280;28056;51.112;0.984;2024-03-23T05:15:28;100435.81;;;0.95;100.00
42411;BME280;28056;51.112;0.984;2024-03-23T05:17:56;100434.42;;;1.07;100.00
42411;BME280;28056;51.112;0.984;2024-03-23T05:20:23;100430.62;;;1.11;100.00
42411;BME280;28056;51.112;0.984;2024-03-23T05:22:50;100433.03;;;1.15;100.00
42411;BME280;28056;51.112;0.984;2024-03-23T05:25:17;100434.81;;;1.09;100.00
42411;BME280;28056;51.112;0.984;2024-03-23T05:27:44;100436.39;;;0.89;100.00
42411;BME280;28056;51.112;0.984;2024-03-23T05:30:12;100437.82;;;0.86;100.00
42411;BME280;28056;51.112;0.984;2024-03-23T05:32:38;100435.53;;;0.94;100.00
42411;BME280;28056;51.112;0.984;2024-03-23T05:35:06;100433.93;;;1.39;100.00
42411;BME280;28056;51.112;0.984;2024-03-23T05:37:34;100432.95;;;0.78;100.00
42411;BME280;28056;51.112;0.984;2024-03-23T05:40:01;100426.23;;;0.75;100.00
42411;BME280;28056;51.112;0.984;2024-03-23T05:42:28;100428.10;;;0.66;100.00
42411;BME280;28056;51.112;0.984;2024-03-23T05:44:55;100433.06;;;0.97;100.00
42411;BME280;28056;51.112;0.984;2024-03-23T05:47:22;100431.83;;;0.61;100.00
42411;BME280;28056;51.112;0.984;2024-03-23T05:49:49;100428.46;;;0.35;100.00
42411;BME280;28056;51.112;0.984;2024-03-23T05:52:17;100429.17;;;0.86;100.00
42411;BME280;28056;51.112;0.984;2024-03-23T05:54:44;100422.93;;;0.69;100.00
42411;BME280;28056;51.112;0.984;2024-03-23T05:57:11;100425.21;;;0.58;100.00
42411;BME280;28056;51.112;0.984;2024-03-23T05:59:38;100426.40;;;0.58;100.00
42411;BME280;28056;51.112;0.984;2024-03-23T06:02:06;100425.78;;;0.37;100.00
42411;BME280;28056;51.112;0.984;2024-03-23T06:04:33;100429.64;;;0.26;100.00
42411;BME280;28056;51.112;0.984;2024-03-23T06:07:00;100432.75;;;0.58;100.00
42411;BME280;28056;51.112;0.984;2024-03-23T06:09:27;100430.70;;;0.31;100.00
42411;BME280;28056;51.112;0.984;2024-03-23T06:11:54;100427.63;;;0.42;100.00
42411;BME280;28056;51.112;0.984;2024-03-23T06:14:21;100430.56;;;0.34;100.00
42411;BME280;28056;51.112;0.984;2024-03-23T06:16:48;100435.52;;;0.24;100.00
42411;BME280;28056;51.112;0.984;2024-03-23T06:19:15;100434.83;;;0.23;100.00
42411;BME280;28056;51.112;0.984;2024-03-23T06:21:43;100429.47;;;0.12;100.00
42411;BME280;28056;51.112;0.984;2024-03-23T06:24:11;100417.96;;;0.51;100.00
42411;BME280;28056;51.112;0.984;2024-03-23T06:26:38;100420.55;;;0.40;100.00
42411;BME280;28056;51.112;0.984;2024-03-23T06:29:05;100416.86;;;0.50;100.00
42411;BME280;28056;51.112;0.984;2024-03-23T06:31:32;100427.44;;;0.23;100.00
42411;BME280;28056;51.112;0.984;2024-03-23T06:33:59;100420.97;;;0.61;100.00
42411;BME280;28056;51.112;0.984;2024-03-23T06:36:27;100413.38;;;0.58;100.00
42411;BME280;28056;51.112;0.984;2024-03-23T06:38:54;100411.94;;;0.53;100.00
42411;BME280;28056;51.112;0.984;2024-03-23T06:41:21;100411.18;;;0.54;100.00
42411;BME280;28056;51.112;0.984;2024-03-23T06:43:48;100407.54;;;0.55;100.00
42411;BME280;28056;51.112;0.984;2024-03-23T06:46:15;100413.81;;;0.77;100.00
42411;BME280;28056;51.112;0.984;2024-03-23T06:48:44;100416.36;;;0.58;100.00
42411;BME280;28056;51.112;0.984;2024-03-23T06:51:12;100420.27;;;0.45;100.00
42411;BME280;28056;51.112;0.984;2024-03-23T06:53:39;100418.25;;;0.35;100.00
42411;BME280;28056;51.112;0.984;2024-03-23T06:56:06;100413.64;;;0.86;100.00
42411;BME280;28056;51.112;0.984;2024-03-23T06:58:33;100407.83;;;0.52;100.00
42411;BME280;28056;51.112;0.984;2024-03-23T07:01:01;100402.25;;;0.91;100.00
42411;BME280;28056;51.112;0.984;2024-03-23T07:03:28;100398.10;;;1.14;100.00
42411;BME280;28056;51.112;0.984;2024-03-23T07:05:58;100407.13;;;1.01;100.00
42411;BME280;28056;51.112;0.984;2024-03-23T07:08:25;100407.45;;;1.12;100.00
42411;BME280;28056;51.112;0.984;2024-03-23T07:10:53;100404.28;;;1.17;100.00
42411;BME280;28056;51.112;0.984;2024-03-23T07:13:20;100406.52;;;0.92;100.00
42411;BME280;28056;51.112;0.984;2024-03-23T07:15:51;100403.58;;;1.34;100.00
42411;BME280;28056;51.112;0.984;2024-03-23T07:18:19;100398.11;;;1.17;100.00
42411;BME280;28056;51.112;0.984;2024-03-23T07:20:53;100395.92;;;1.03;100.00
42411;BME280;28056;51.112;0.984;2024-03-23T07:23:20;100395.72;;;1.34;100.00
42411;BME280;28056;51.112;0.984;2024-03-23T07:25:57;100399.98;;;1.36;100.00
42411;BME280;28056;51.112;0.984;2024-03-23T07:28:25;100402.08;;;1.63;100.00
42411;BME280;28056;51.112;0.984;2024-03-23T07:31:03;100399.81;;;1.69;100.00
42411;BME280;28056;51.112;0.984;2024-03-23T07:33:31;100398.03;;;1.49;100.00
42411;BME280;28056;51.112;0.984;2024-03-23T07:35:59;100402.02;;;1.64;100.00
42411;BME280;28056;51.112;0.984;2024-03-23T07:38:27;100394.20;;;1.76;100.00
42411;BME280;28056;51.112;0.984;2024-03-23T07:41:03;100394.28;;;2.04;100.00
42411;BME280;28056;51.112;0.984;2024-03-23T07:43:31;100394.22;;;1.72;100.00
42411;BME280;28056;51.112;0.984;2024-03-23T07:46:04;100398.12;;;1.83;100.00
42411;BME280;28056;51.112;0.984;2024-03-23T07:48:32;100391.88;;;2.14;100.00
42411;BME280;28056;51.112;0.984;2024-03-23T07:51:01;100390.05;;;2.39;100.00
42411;BME280;28056;51.112;0.984;2024-03-23T07:53:29;100387.90;;;2.03;100.00
42411;BME280;28056;51.112;0.984;2024-03-23T07:55:58;100387.05;;;1.99;100.00
42411;BME280;28056;51.112;0.984;2024-03-23T07:58:26;100394.42;;;1.84;100.00
42411;BME280;28056;51.112;0.984;2024-03-23T08:00:54;100389.34;;;1.72;100.00
42411;BME280;28056;51.112;0.984;2024-03-23T08:03:22;100391.89;;;1.63;100.00
42411;BME280;28056;51.112;0.984;2024-03-23T08:05:49;100391.90;;;1.83;100.00
42411;BME280;28056;51.112;0.984;2024-03-23T08:08:16;100391.51;;;1.99;100.00
42411;BME280;28056;51.112;0.984;2024-03-23T08:10:51;100387.95;;;2.18;100.00
42411;BME280;28056;51.112;0.984;2024-03-23T08:13:30;100390.81;;;2.39;100.00
42411;BME280;28056;51.112;0.984;2024-03-23T08:15:57;100390.87;;;2.20;100.00
42411;BME280;28056;51.112;0.984;2024-03-23T08:18:25;100392.48;;;2.50;100.00
42411;BME280;28056;51.112;0.984;2024-03-23T08:20:57;100382.88;;;2.62;100.00
42411;BME280;28056;51.112;0.984;2024-03-23T08:23:25;100387.77;;;2.68;100.00
42411;BME280;28056;51.112;0.984;2024-03-23T08:25:57;100386.78;;;3.14;100.00
42411;BME280;28056;51.112;0.984;2024-03-23T08:28:25;100386.48;;;2.83;100.00
42411;BME280;28056;51.112;0.984;2024-03-23T08:30:53;100383.12;;;2.89;100.00
42411;BME280;28056;51.112;0.984;2024-03-23T08:33:21;100380.66;;;3.25;100.00
42411;BME280;28056;51.112;0.984;2024-03-23T08:35:54;100381.93;;;3.15;100.00
42411;BME280;28056;51.112;0.984;2024-03-23T08:38:22;100387.26;;;2.96;100.00
42411;BME280;28056;51.112;0.984;2024-03-23T08:41:00;100391.59;;;3.13;100.00
42411;BME280;28056;51.112;0.984;2024-03-23T08:43:29;100384.02;;;2.85;100.00
42411;BME280;28056;51.112;0.984;2024-03-23T08:46:04;100378.27;;;2.79;100.00
42411;BME280;28056;51.112;0.984;2024-03-23T08:48:31;100378.01;;;3.64;100.00
42411;BME280;28056;51.112;0.984;2024-03-23T08:51:00;100379.07;;;3.46;100.00
42411;BME280;28056;51.112;0.984;2024-03-23T08:53:29;100371.79;;;3.53;100.00
42411;BME280;28056;51.112;0.984;2024-03-23T08:55:56;100373.88;;;3.76;100.00
42411;BME280;28056;51.112;0.984;2024-03-23T08:58:25;100362.47;;;3.31;100.00
42411;BME280;28056;51.112;0.984;2024-03-23T09:00:54;100361.49;;;3.21;100.00
42411;BME280;28056;51.112;0.984;2024-03-23T09:03:22;100370.66;;;3.94;100.00
42411;BME280;28056;51.112;0.984;2024-03-23T09:05:49;100373.06;;;3.73;100.00
42411;BME280;28056;51.112;0.984;2024-03-23T09:08:17;100368.60;;;3.83;100.00
42411;BME280;28056;51.112;0.984;2024-03-23T09:10:47;100367.56;;;4.27;100.00
42411;BME280;28056;51.112;0.984;2024-03-23T09:13:14;100371.31;;;3.71;100.00
42411;BME280;28056;51.112;0.984;2024-03-23T09:15:47;100370.13;;;4.09;100.00
42411;BME280;28056;51.112;0.984;2024-03-23T09:18:15;100368.16;;;4.13;100.00
42411;BME280;28056;51.112;0.984;2024-03-23T09:20:43;100367.48;;;4.03;100.00
42411;BME280;28056;51.112;0.984;2024-03-23T09:23:10;100371.17;;;4.38;100.00
42411;BME280;28056;51.112;0.984;2024-03-23T09:25:37;100377.09;;;4.08;100.00
42411;BME280;28056;51.112;0.984;2024-03-23T09:28:05;100369.25;;;4.39;100.00
42411;BME280;28056;51.112;0.984;2024-03-23T09:30:32;100361.52;;;3.86;100.00
42411;BME280;28056;51.112;0.984;2024-03-23T09:33:00;100370.71;;;3.58;100.00
42411;BME280;28056;51.112;0.984;2024-03-23T09:35:28;100381.56;;;4.47;100.00
42411;BME280;28056;51.112;0.984;2024-03-23T09:37:55;100366.85;;;4.71;100.00
42411;BME280;28056;51.112;0.984;2024-03-23T09:40:22;100362.94;;;4.07;100.00
42411;BME280;28056;51.112;0.984;2024-03-23T09:42:50;100359.76;;;4.76;100.00
42411;BME280;28056;51.112;0.984;2024-03-23T09:45:21;100349.88;;;5.00;100.00
42411;BME280;28056;51.112;0.984;2024-03-23T09:47:48;100351.50;;;4.51;100.00
42411;BME280;28056;51.112;0.984;2024-03-23T09:50:16;100343.90;;;5.01;100.00
42411;BME280;28056;51.112;0.984;2024-03-23T09:52:46;100343.69;;;4.42;100.00
42411;BME280;28056;51.112;0.984;2024-03-23T09:55:13;100338.87;;;4.20;100.00
42411;BME280;28056;51.112;0.984;2024-03-23T09:57:41;100336.39;;;4.57;100.00
42411;BME280;28056;51.112;0.984;2024-03-23T10:00:10;100329.06;;;4.76;100.00
42411;BME280;28056;51.112;0.984;2024-03-23T10:02:38;100320.82;;;4.95;100.00
42411;BME280;28056;51.112;0.984;2024-03-23T10:05:06;100320.72;;;4.93;100.00
42411;BME280;28056;51.112;0.984;2024-03-23T10:07:46;100322.17;;;4.48;100.00
42411;BME280;28056;51.112;0.984;2024-03-23T10:10:15;100322.12;;;5.00;100.00
42411;BME280;28056;51.112;0.984;2024-03-23T10:12:45;100326.19;;;5.00;100.00
42411;BME280;28056;51.112;0.984;2024-03-23T10:15:18;100318.28;;;5.11;100.00
42411;BME280;28056;51.112;0.984;2024-03-23T10:17:45;100323.87;;;5.02;100.00
42411;BME280;28056;51.112;0.984;2024-03-23T10:20:13;100319.62;;;5.07;100.00
42411;BME280;28056;51.112;0.984;2024-03-23T10:22:46;100315.28;;;5.29;100.00
42411;BME280;28056;51.112;0.984;2024-03-23T10:25:13;100306.85;;;4.56;100.00
42411;BME280;28056;51.112;0.984;2024-03-23T10:27:41;100307.88;;;4.48;100.00
42411;BME280;28056;51.112;0.984;2024-03-23T10:30:10;100307.58;;;5.28;100.00
42411;BME280;28056;51.112;0.984;2024-03-23T10:32:38;100305.63;;;5.36;100.00
42411;BME280;28056;51.112;0.984;2024-03-23T10:35:20;100307.16;;;5.34;100.00
42411;BME280;28056;51.112;0.984;2024-03-23T10:37:48;100308.42;;;5.01;100.00
42411;BME280;28056;51.112;0.984;2024-03-23T10:40:16;100304.65;;;5.52;98.66
42411;BME280;28056;51.112;0.984;2024-03-23T10:42:44;100301.89;;;5.35;97.37
42411;BME280;28056;51.112;0.984;2024-03-23T10:45:11;100294.32;;;5.49;99.52
42411;BME280;28056;51.112;0.984;2024-03-23T10:47:39;100297.04;;;5.95;100.00
42411;BME280;28056;51.112;0.984;2024-03-23T10:50:06;100288.94;;;5.47;100.00
42411;BME280;28056;51.112;0.984;2024-03-23T10:52:34;100287.87;;;5.51;100.00
42411;BME280;28056;51.112;0.984;2024-03-23T10:55:03;100282.19;;;5.70;100.00
42411;BME280;28056;51.112;0.984;2024-03-23T10:57:36;100271.55;;;5.61;100.00
42411;BME280;28056;51.112;0.984;2024-03-23T11:00:07;100263.72;;;5.53;95.83
42411;BME280;28056;51.112;0.984;2024-03-23T11:02:34;100275.61;;;5.59;96.43
42411;BME280;28056;51.112;0.984;2024-03-23T11:05:01;100273.85;;;6.00;95.73
42411;BME280;28056;51.112;0.984;2024-03-23T11:07:30;100269.49;;;5.32;90.83
42411;BME280;28056;51.112;0.984;2024-03-23T11:09:57;100274.33;;;5.55;100.00
42411;BME280;28056;51.112;0.984;2024-03-23T11:12:28;100265.56;;;5.57;100.00
42411;BME280;28056;51.112;0.984;2024-03-23T11:14:58;100260.05;;;5.89;93.36
42411;BME280;28056;51.112;0.984;2024-03-23T11:17:27;100284.07;;;6.56;100.00
42411;BME280;28056;51.112;0.984;2024-03-23T11:19:56;100258.46;;;5.98;91.67
42411;BME280;28056;51.112;0.984;2024-03-23T11:22:40;100248.31;;;5.47;96.60
42411;BME280;28056;51.112;0.984;2024-03-23T11:25:24;100247.74;;;5.63;100.00
42411;BME280;28056;51.112;0.984;2024-03-23T11:27:53;100247.39;;;5.89;99.90
42411;BME280;28056;51.112;0.984;2024-03-23T11:30:22;100251.90;;;6.64;100.00
42411;BME280;28056;51.112;0.984;2024-03-23T11:32:52;100245.72;;;6.65;91.48
42411;BME280;28056;51.112;0.984;2024-03-23T11:35:28;100240.69;;;6.57;87.85
42411;BME280;28056;51.112;0.984;2024-03-23T11:38:06;100245.23;;;6.21;89.33
42411;BME280;28056;51.112;0.984;2024-03-23T11:40:34;100241.42;;;6.29;90.56
42411;BME280;28056;51.112;0.984;2024-03-23T11:43:03;100235.90;;;6.07;90.73
42411;BME280;28056;51.112;0.984;2024-03-23T11:45:35;100239.93;;;5.93;90.82
42411;BME280;28056;51.112;0.984;2024-03-23T11:48:05;100233.25;;;6.41;82.92
42411;BME280;28056;51.112;0.984;2024-03-23T11:50:32;100229.15;;;6.32;88.31
42411;BME280;28056;51.112;0.984;2024-03-23T11:53:08;100223.26;;;6.33;86.68
42411;BME280;28056;51.112;0.984;2024-03-23T11:55:41;100225.37;;;6.30;84.98
42411;BME280;28056;51.112;0.984;2024-03-23T11:58:10;100224.48;;;6.34;85.56
42411;BME280;28056;51.112;0.984;2024-03-23T12:00:37;100225.44;;;6.62;81.58
42411;BME280;28056;51.112;0.984;2024-03-23T12:03:05;100208.90;;;6.28;82.33
42411;BME280;28056;51.112;0.984;2024-03-23T12:05:33;100216.99;;;6.25;80.46
42411;BME280;28056;51.112;0.984;2024-03-23T12:08:18;100215.32;;;6.72;89.34
42411;BME280;28056;51.112;0.984;2024-03-23T12:10:49;100219.22;;;6.95;92.22
42411;BME280;28056;51.112;0.984;2024-03-23T12:13:18;100213.12;;;6.68;80.73
42411;BME280;28056;51.112;0.984;2024-03-23T12:15:46;100212.73;;;6.22;78.03
42411;BME280;28056;51.112;0.984;2024-03-23T12:18:14;100209.04;;;6.46;82.97
42411;BME280;28056;51.112;0.984;2024-03-23T12:20:42;100198.92;;;6.50;76.92
42411;BME280;28056;51.112;0.984;2024-03-23T12:23:11;100193.48;;;7.45;80.37
42411;BME280;28056;51.112;0.984;2024-03-23T12:25:39;100189.38;;;7.44;83.88
42411;BME280;28056;51.112;0.984;2024-03-23T12:28:07;100180.06;;;6.99;75.70
42411;BME280;28056;51.112;0.984;2024-03-23T12:30:39;100178.43;;;6.84;86.77
42411;BME280;28056;51.112;0.984;2024-03-23T12:33:07;100174.00;;;7.45;91.71
42411;BME280;28056;51.112;0.984;2024-03-23T12:35:34;100161.05;;;8.46;85.98
42411;BME280;28056;51.112;0.984;2024-03-23T12:38:02;100153.58;;;8.59;72.62
42411;BME280;28056;51.112;0.984;2024-03-23T12:40:29;100161.29;;;7.41;74.74
42411;BME280;28056;51.112;0.984;2024-03-23T12:42:56;100164.70;;;6.73;77.52
42411;BME280;28056;51.112;0.984;2024-03-23T12:45:23;100145.03;;;6.85;77.38
42411;BME280;28056;51.112;0.984;2024-03-23T12:47:51;100143.88;;;7.52;79.92
42411;BME280;28056;51.112;0.984;2024-03-23T12:50:18;100128.91;;;8.47;78.05
42411;BME280;28056;51.112;0.984;2024-03-23T12:52:47;100132.33;;;9.08;71.98
42411;BME280;28056;51.112;0.984;2024-03-23T12:55:14;100125.86;;;9.62;66.96
42411;BME280;28056;51.112;0.984;2024-03-23T12:57:42;100120.17;;;8.06;64.36
42411;BME280;28056;51.112;0.984;2024-03-23T13:00:11;100112.68;;;8.34;68.25
42411;BME280;28056;51.112;0.984;2024-03-23T13:02:38;100117.71;;;9.70;65.42
42411;BME280;28056;51.112;0.984;2024-03-23T13:05:07;100105.62;;;9.31;64.54
42411;BME280;28056;51.112;0.984;2024-03-23T13:07:35;100094.40;;;9.52;60.59
42411;BME280;28056;51.112;0.984;2024-03-23T13:10:03;100103.22;;;9.06;63.66
42411;BME280;28056;51.112;0.984;2024-03-23T13:12:30;100081.49;;;8.67;62.37
42411;BME280;28056;51.112;0.984;2024-03-23T13:14:58;100074.17;;;8.41;66.87
42411;BME280;28056;51.112;0.984;2024-03-23T13:17:25;100064.89;;;8.98;67.42
42411;BME280;28056;51.112;0.984;2024-03-23T13:19:52;100062.39;;;8.76;71.06
42411;BME280;28056;51.112;0.984;2024-03-23T13:22:18;100056.87;;;8.45;70.41
42411;BME280;28056;51.112;0.984;2024-03-23T13:24:45;100044.58;;;9.08;64.38
42411;BME280;28056;51.112;0.984;2024-03-23T13:27:13;100048.27;;;8.23;65.84
42411;BME280;28056;51.112;0.984;2024-03-23T13:29:41;100041.44;;;7.52;69.15
42411;BME280;28056;51.112;0.984;2024-03-23T13:32:08;100027.86;;;8.81;65.56
42411;BME280;28056;51.112;0.984;2024-03-23T13:34:36;100040.08;;;7.88;74.21
42411;BME280;28056;51.112;0.984;2024-03-23T13:37:02;100044.70;;;8.56;75.17
42411;BME280;28056;51.112;0.984;2024-03-23T13:39:30;100039.09;;;7.28;75.83
42411;BME280;28056;51.112;0.984;2024-03-23T13:41:58;100044.83;;;6.96;80.59
42411;BME280;28056;51.112;0.984;2024-03-23T13:44:25;100039.59;;;7.05;85.82
42411;BME280;28056;51.112;0.984;2024-03-23T13:46:52;100053.84;;;6.30;90.90
42411;BME280;28056;51.112;0.984;2024-03-23T13:49:25;100059.58;;;6.00;91.47
42411;BME280;28056;51.112;0.984;2024-03-23T13:51:53;100081.88;;;6.07;96.93
42411;BME280;28056;51.112;0.984;2024-03-23T13:54:21;100078.56;;;4.67;100.00